Sunday, October 21, 2018, 4:44 PM GMT
Back to Local

CWQO, Ile Bicquette, Que.

Location: , , Canada Lat: 48.416
Local Time: 4:44 PM GMT (16:44 GMT) Lon: -68.893
Time Zone: GMT Elev: 22 ft

Show me the last for .
Show Coded

Time T Td Feel RH Dir Speed Gust Alt SLP Vis Weather Sky Remarks
2018-10-21 16:00 37 28 29 70 280° 13 - - - 0 None
2018-10-21 15:00 37 25 28 60 290° 15 - - - 0 Peak wind: 26 mph (23 kts) from 280° at 03 min
2018-10-21 14:00 37 25 27 60 270° 18 - - - 0 Peak wind: 28 mph (25 kts) from 290° at 02 min
2018-10-21 13:00 37 27 26 66 280° 22 - - - 0 Peak wind: 32 mph (28 kts) from 260° at 03 min
2018-10-21 12:00 36 29 24 75 250° 26 - - - 0 Peak wind: 32 mph (28 kts) from 250° at 56 min
2018-10-21 11:00 37 30 25 77 250° 26 - - - 0 Peak wind: 33 mph (29 kts) from 240° at 05 min
2018-10-21 10:00 37 31 25 78 240° 29 - - - 0 Peak wind: 34 mph (30 kts) from 240° at 42 min
2018-10-21 09:00 37 32 26 80 230° 26 - - - 0 Peak wind: 31 mph (27 kts) from 240° at 06 min
2018-10-21 08:00 38 32 26 78 230° 26 - - - 0 Peak wind: 33 mph (29 kts) from 240° at 10 min
2018-10-21 07:00 38 31 26 75 240° 23 30 - - 0 Peak wind: 33 mph (29 kts) from 240° at 00 min
2018-10-21 06:00 38 32 26 76 240° 29 35 - - 0 Peak wind: 34 mph (30 kts) from 240° at 41 min
2018-10-21 05:00 39 31 28 74 230° 28 - - - 0 Peak wind: 33 mph (29 kts) from 240° at 36 min
2018-10-21 04:00 40 31 29 72 240° 25 - - - 0 Peak wind: 31 mph (27 kts) from 240° at 59 min
2018-10-21 03:00 38 33 27 81 230° 26 - - - 0 Peak wind: 29 mph (26 kts) from 230° at 58 min
2018-10-21 02:00 40 34 30 78 240° 24 - - - 0 Peak wind: 34 mph (30 kts) from 240° at 40 min
2018-10-21 01:00 41 34 30 75 240° 23 29 - - 0 Peak wind: 36 mph (32 kts) from 260° at 06 min
2018-10-21 00:00 42 34 31 73 250° 30 - - - 0 Peak wind: 39 mph (34 kts) from 240° at 38 min
2018-10-20 23:00 42 34 31 73 240° 30 - - - 0 Peak wind: 36 mph (32 kts) from 240° at 35 min
2018-10-20 22:00 43 36 34 75 250° 24 - - - 0 Peak wind: 41 mph (36 kts) from 240° at 12 min
2018-10-20 21:00 46 40 36 76 220° 30 39 - - 0 Peak wind: 39 mph (34 kts) from 230° at 59 min
2018-10-20 20:00 48 40 38 74 220° 31 39 - - 0 Peak wind: 44 mph (39 kts) from 230° at 18 min
2018-10-20 19:00 50 41 41 71 220° 31 39 - - 0 Peak wind: 40 mph (35 kts) from 230° at 33 min
2018-10-20 18:00 49 42 41 74 220° 23 30 - - 0 Peak wind: 29 mph (26 kts) from 240° at 57 min
2018-10-20 17:00 47 41 39 80 200° 18 25 - - 0 Peak wind: 34 mph (30 kts) from 200° at 14 min

Support USWX by starting your Amazon purchase here.